createdAt,value
2023-01-26T00:00:10.250Z,-3.38
2023-01-26T00:02:39.367Z,-3.35
2023-01-26T00:05:08.562Z,-3.33
2023-01-26T00:07:37.211Z,-3.38
2023-01-26T00:10:06.558Z,-3.33
2023-01-26T00:12:36.868Z,-3.33
2023-01-26T00:15:07.305Z,-3.31
2023-01-26T00:17:38.360Z,-3.15
2023-01-26T00:20:10.488Z,-3.23
2023-01-26T00:22:39.267Z,-3.31
2023-01-26T00:25:08.803Z,-3.30
2023-01-26T00:27:40.329Z,-3.38
2023-01-26T00:30:14.277Z,-3.24
2023-01-26T00:32:43.318Z,-3.35
2023-01-26T00:35:12.078Z,-3.38
2023-01-26T00:37:47.618Z,-3.39
2023-01-26T00:40:17.323Z,-3.55
2023-01-26T00:42:47.650Z,-3.65
2023-01-26T00:45:23.679Z,-3.55
2023-01-26T00:47:53.132Z,-3.46
2023-01-26T00:50:24.257Z,-3.33
2023-01-26T00:52:55.352Z,-3.33
2023-01-26T00:55:32.532Z,-3.33
2023-01-26T00:58:05.388Z,-3.57
2023-01-26T01:00:35.790Z,-3.64
2023-01-26T01:03:11.201Z,-3.68
2023-01-26T01:05:39.818Z,-3.77
2023-01-26T01:08:10.888Z,-3.81
2023-01-26T01:10:41.429Z,-3.85
2023-01-26T01:13:13.291Z,-3.94
2023-01-26T01:15:43.667Z,-3.90
2023-01-26T01:18:12.194Z,-3.86
2023-01-26T01:20:42.605Z,-3.84
2023-01-26T01:23:14.752Z,-3.85
2023-01-26T01:25:50.949Z,-3.84
2023-01-26T01:28:21.964Z,-3.81
2023-01-26T01:30:52.686Z,-3.73
2023-01-26T01:33:21.326Z,-3.64
2023-01-26T01:35:58.288Z,-3.51
2023-01-26T01:38:28.039Z,-3.37
2023-01-26T01:40:57.671Z,-3.30
2023-01-26T01:43:34.511Z,-3.25
2023-01-26T01:46:14.570Z,-3.41
2023-01-26T01:48:52.405Z,-3.45
2023-01-26T01:51:31.362Z,-3.44
2023-01-26T01:54:05.946Z,-3.40
2023-01-26T01:56:38.308Z,-3.23
2023-01-26T01:59:16.056Z,-3.11
2023-01-26T02:01:47.777Z,-3.21
2023-01-26T02:04:16.707Z,-3.14
2023-01-26T02:06:56.300Z,-3.12
2023-01-26T02:09:50.216Z,-2.99
2023-01-26T02:12:28.078Z,-2.97
2023-01-26T02:14:59.411Z,-2.98
2023-01-26T02:17:28.391Z,-3.07
2023-01-26T02:20:05.601Z,-2.96
2023-01-26T02:22:47.175Z,-2.92
2023-01-26T02:25:24.552Z,-3.11
2023-01-26T02:27:54.556Z,-2.97
2023-01-26T02:30:24.932Z,-2.94
2023-01-26T02:32:54.140Z,-2.90
2023-01-26T02:35:22.918Z,-2.86
2023-01-26T02:37:52.728Z,-2.67
2023-01-26T02:40:31.898Z,-2.61
2023-01-26T02:43:02.759Z,-2.59
2023-01-26T02:45:34.446Z,-2.72
2023-01-26T02:48:04.830Z,-2.56
2023-01-26T02:50:32.754Z,-2.46
2023-01-26T02:53:02.268Z,-2.52
2023-01-26T02:55:32.203Z,-2.53
2023-01-26T02:58:18.940Z,-2.50
2023-01-26T03:00:49.059Z,-2.44
2023-01-26T03:03:21.809Z,-2.52
2023-01-26T03:05:52.695Z,-2.46
2023-01-26T03:08:22.970Z,-2.50
2023-01-26T03:10:54.642Z,-2.48
2023-01-26T03:13:26.944Z,-2.50
2023-01-26T03:16:05.809Z,-2.48
2023-01-26T03:18:53.812Z,-2.50
2023-01-26T03:21:44.761Z,-2.64
2023-01-26T03:24:33.799Z,-2.64
2023-01-26T03:27:26.265Z,-2.72
2023-01-26T03:30:00.088Z,-2.84
2023-01-26T03:32:28.742Z,-2.93
2023-01-26T03:34:57.451Z,-2.87
2023-01-26T03:37:27.214Z,-2.87
2023-01-26T03:40:24.519Z,-2.92
2023-01-26T03:43:10.763Z,-2.86
2023-01-26T03:45:58.059Z,-2.82
2023-01-26T03:48:47.160Z,-2.66
2023-01-26T03:51:34.222Z,-2.57
2023-01-26T03:54:20.125Z,-2.67
2023-01-26T03:56:48.645Z,-2.68
2023-01-26T03:59:37.866Z,-2.71
2023-01-26T04:02:30.145Z,-2.65
2023-01-26T04:05:16.900Z,-2.52
2023-01-26T04:08:06.508Z,-2.43
2023-01-26T04:10:35.450Z,-2.38
2023-01-26T04:13:23.038Z,-2.37
2023-01-26T04:16:14.575Z,-2.36
2023-01-26T04:19:01.915Z,-2.34
2023-01-26T04:21:33.381Z,-2.22
2023-01-26T04:24:09.575Z,-2.18
2023-01-26T04:26:38.464Z,-2.15
2023-01-26T04:29:11.748Z,-2.16
2023-01-26T04:31:41.949Z,-2.11
2023-01-26T04:34:14.659Z,-2.16
2023-01-26T04:36:44.235Z,-2.14
2023-01-26T04:39:12.733Z,-2.21
2023-01-26T04:41:44.901Z,-2.16
2023-01-26T04:44:16.860Z,-2.23
2023-01-26T04:46:47.524Z,-2.17
2023-01-26T04:49:19.790Z,-2.12
2023-01-26T04:51:48.584Z,-2.21
2023-01-26T04:54:18.109Z,-2.29
2023-01-26T04:56:46.625Z,-2.28
2023-01-26T04:59:15.512Z,-2.32
2023-01-26T05:01:44.926Z,-2.35
2023-01-26T05:04:13.818Z,-2.34
2023-01-26T05:06:46.962Z,-2.30
2023-01-26T05:09:15.563Z,-2.30
2023-01-26T05:11:46.420Z,-2.34
2023-01-26T05:14:40.755Z,-2.25
2023-01-26T05:17:19.716Z,-2.31
2023-01-26T05:19:55.118Z,-2.45
2023-01-26T05:22:52.367Z,-2.48
2023-01-26T05:25:41.705Z,-2.41
2023-01-26T05:28:12.724Z,-2.49
2023-01-26T05:30:42.359Z,-2.44
2023-01-26T05:33:11.954Z,-2.52
2023-01-26T05:35:41.058Z,-2.51
2023-01-26T05:38:12.924Z,-2.52
2023-01-26T05:40:41.442Z,-2.33
2023-01-26T05:43:10.984Z,-2.28
2023-01-26T05:45:59.749Z,-2.24
2023-01-26T05:48:28.199Z,-2.20
2023-01-26T05:50:57.927Z,-2.19
2023-01-26T05:53:28.916Z,-2.08
2023-01-26T05:55:57.575Z,-2.18
2023-01-26T05:58:28.539Z,-2.22
2023-01-26T06:00:57.420Z,-2.32
2023-01-26T06:03:31.339Z,-2.32
2023-01-26T06:05:59.887Z,-2.48
2023-01-26T06:08:48.354Z,-2.38
2023-01-26T06:11:40.041Z,-2.41
2023-01-26T06:14:34.598Z,-2.26
2023-01-26T06:17:04.318Z,-2.17
2023-01-26T06:19:39.848Z,-2.29
2023-01-26T06:22:08.917Z,-2.02
2023-01-26T06:24:40.505Z,-2.09
2023-01-26T06:27:14.050Z,-2.06
2023-01-26T06:29:44.533Z,-2.15
2023-01-26T06:32:13.859Z,-2.03
2023-01-26T06:34:43.965Z,-2.02
2023-01-26T06:37:13.935Z,-2.08
2023-01-26T06:39:44.489Z,-2.14
2023-01-26T06:42:13.918Z,-2.24
2023-01-26T06:44:42.455Z,-2.26
2023-01-26T06:47:12.268Z,-2.16
2023-01-26T06:49:42.254Z,-2.04
2023-01-26T06:52:28.042Z,-2.04
2023-01-26T06:55:02.943Z,-1.98
2023-01-26T06:57:53.076Z,-1.98
2023-01-26T07:00:40.781Z,-2.03
2023-01-26T07:03:15.724Z,-1.55
2023-01-26T07:05:44.122Z,-1.08
2023-01-26T07:08:12.495Z,-1.29
2023-01-26T07:10:42.430Z,-1.54
2023-01-26T07:13:10.879Z,-1.65
2023-01-26T07:15:39.251Z,-1.75
2023-01-26T07:18:07.754Z,-1.91
2023-01-26T07:20:37.647Z,-2.02
2023-01-26T07:23:05.953Z,-2.03
2023-01-26T07:25:34.423Z,-1.99
2023-01-26T07:28:04.160Z,-1.99
2023-01-26T07:30:32.575Z,-2.02
2023-01-26T07:33:01.267Z,-2.12
2023-01-26T07:35:29.778Z,-2.05
2023-01-26T07:37:59.019Z,-2.11
2023-01-26T07:40:27.375Z,-2.04
2023-01-26T07:42:56.747Z,-1.98
2023-01-26T07:45:47.977Z,-1.97
2023-01-26T07:48:16.622Z,-2.02
2023-01-26T07:50:47.195Z,-2.01
2023-01-26T07:53:19.193Z,-1.92
2023-01-26T07:55:47.928Z,-1.94
2023-01-26T07:58:17.915Z,-1.90
2023-01-26T08:00:47.896Z,-1.76
2023-01-26T08:03:16.221Z,-1.67
2023-01-26T08:05:44.553Z,-1.69
2023-01-26T08:08:13.085Z,-1.74
2023-01-26T08:10:41.464Z,-1.70
2023-01-26T08:13:09.786Z,-1.60
2023-01-26T08:15:38.320Z,-1.66
2023-01-26T08:18:08.095Z,-1.64
2023-01-26T08:20:36.575Z,-1.57
2023-01-26T08:23:05.034Z,-1.41
2023-01-26T08:25:34.071Z,-1.31
2023-01-26T08:28:03.410Z,-1.30
2023-01-26T08:30:31.766Z,-1.38
2023-01-26T08:33:00.252Z,-1.34
2023-01-26T08:35:30.172Z,-1.25
2023-01-26T08:37:58.656Z,-1.29
2023-01-26T08:40:27.461Z,-1.29
2023-01-26T08:42:55.870Z,-1.18
2023-01-26T08:45:24.224Z,-1.14
2023-01-26T08:47:52.583Z,-1.06
2023-01-26T08:50:21.060Z,-1.07
2023-01-26T08:52:50.792Z,-1.01
2023-01-26T08:55:19.174Z,-0.96
2023-01-26T08:57:47.548Z,-1.00
2023-01-26T09:00:16.713Z,-0.95
2023-01-26T09:02:45.361Z,-0.96
2023-01-26T09:05:13.771Z,-1.01
2023-01-26T09:07:42.199Z,-1.10
2023-01-26T09:10:13.471Z,-1.11
2023-01-26T09:12:42.147Z,-1.13
2023-01-26T09:15:11.439Z,-1.11
2023-01-26T09:17:39.782Z,-1.08
2023-01-26T09:20:10.952Z,-0.96
2023-01-26T09:22:40.954Z,-0.92
2023-01-26T09:25:10.511Z,-0.92
2023-01-26T09:27:40.889Z,-0.88
2023-01-26T09:30:10.658Z,-0.82
2023-01-26T09:32:39.269Z,-0.90
2023-01-26T09:35:14.222Z,-0.86
2023-01-26T09:37:44.823Z,-0.96
2023-01-26T09:40:20.718Z,-0.95
2023-01-26T09:43:05.176Z,-0.99
2023-01-26T09:45:36.878Z,-0.88
2023-01-26T09:48:25.344Z,-0.88
2023-01-26T09:51:01.344Z,-0.99
2023-01-26T09:53:41.015Z,-1.02
2023-01-26T09:56:17.755Z,-0.90
2023-01-26T09:58:53.463Z,-0.81
2023-01-26T10:01:25.760Z,-0.63
2023-01-26T10:04:03.179Z,-0.64
2023-01-26T10:06:32.203Z,-0.48
2023-01-26T10:09:12.348Z,-0.53
2023-01-26T10:11:42.377Z,-0.55
2023-01-26T10:14:15.931Z,-0.42
2023-01-26T10:16:45.830Z,-0.44
2023-01-26T10:19:15.540Z,-0.56
2023-01-26T10:21:45.492Z,-0.45
2023-01-26T10:24:15.139Z,-0.30
2023-01-26T10:26:43.533Z,-0.19
2023-01-26T10:29:16.592Z,-0.30
2023-01-26T10:31:45.341Z,-0.26
2023-01-26T10:34:15.942Z,-0.36
2023-01-26T10:36:46.797Z,-0.25
2023-01-26T10:39:15.996Z,-0.38
2023-01-26T10:41:57.142Z,-0.36
2023-01-26T10:44:31.672Z,-0.40
2023-01-26T10:47:04.046Z,-0.39
2023-01-26T10:49:32.203Z,-0.42
2023-01-26T10:52:07.392Z,-0.29
2023-01-26T10:54:36.855Z,-0.18
2023-01-26T10:57:07.130Z,-0.07
2023-01-26T10:59:41.025Z,0.00
2023-01-26T11:02:21.563Z,0.05
2023-01-26T11:05:08.115Z,-0.10
2023-01-26T11:07:38.486Z,-0.18
2023-01-26T11:10:20.824Z,-0.07
2023-01-26T11:12:49.108Z,-0.09
2023-01-26T11:15:19.690Z,0.02
2023-01-26T11:17:55.873Z,0.11
2023-01-26T11:20:41.574Z,-0.01
2023-01-26T11:23:14.563Z,0.11
2023-01-26T11:25:49.747Z,0.20
2023-01-26T11:28:29.958Z,0.32
2023-01-26T11:31:09.167Z,0.39
2023-01-26T11:33:43.071Z,0.39
2023-01-26T11:36:14.615Z,0.26
2023-01-26T11:38:43.922Z,0.18
2023-01-26T11:41:21.596Z,0.06
2023-01-26T11:43:56.323Z,-0.27
2023-01-26T11:46:39.073Z,-0.32
2023-01-26T11:49:16.553Z,-0.43
2023-01-26T11:51:52.711Z,-0.36
2023-01-26T11:54:28.103Z,-0.25
2023-01-26T11:57:04.435Z,-0.29
2023-01-26T11:59:36.832Z,-0.47
2023-01-26T12:02:17.160Z,-0.47
2023-01-26T12:04:47.969Z,-0.48
2023-01-26T12:07:20.146Z,-0.46
2023-01-26T12:09:49.821Z,-0.46
2023-01-26T12:12:20.791Z,-0.40
2023-01-26T12:14:52.239Z,-0.30
2023-01-26T12:17:32.877Z,-0.22
2023-01-26T12:20:05.390Z,-0.24
2023-01-26T12:22:34.578Z,-0.33
2023-01-26T12:25:20.013Z,-0.43
2023-01-26T12:27:51.939Z,-0.39
2023-01-26T12:30:25.106Z,-0.42
2023-01-26T12:32:54.696Z,-0.39
2023-01-26T12:35:28.509Z,-0.36
2023-01-26T12:38:16.687Z,-0.45
2023-01-26T12:40:49.926Z,-0.43
2023-01-26T12:43:24.707Z,-0.39
2023-01-26T12:45:55.444Z,-0.30
2023-01-26T12:48:29.577Z,-0.43
2023-01-26T12:51:00.341Z,-0.35
2023-01-26T12:53:32.411Z,-0.24
2023-01-26T12:56:06.097Z,-0.31
2023-01-26T12:58:35.310Z,-0.43
2023-01-26T13:01:05.217Z,-0.39
2023-01-26T13:03:38.559Z,-0.25
2023-01-26T13:06:20.172Z,-0.15
2023-01-26T13:08:53.791Z,-0.12
2023-01-26T13:11:40.604Z,-0.04
2023-01-26T13:14:23.687Z,-0.02
2023-01-26T13:16:51.902Z,0.06
2023-01-26T13:19:37.585Z,-0.01
2023-01-26T13:22:28.316Z,-0.02
2023-01-26T13:24:57.949Z,-0.15
2023-01-26T13:27:30.742Z,-0.10
2023-01-26T13:29:59.035Z,-0.01
2023-01-26T13:32:58.020Z,0.07
2023-01-26T13:35:27.603Z,0.08
2023-01-26T13:37:58.672Z,0.04
2023-01-26T13:40:31.328Z,0.02
2023-01-26T13:43:02.723Z,0.04
2023-01-26T13:45:33.737Z,-0.06
2023-01-26T13:48:04.296Z,0.02
2023-01-26T13:50:34.551Z,-0.11
2023-01-26T13:53:02.701Z,0.04
2023-01-26T13:55:32.081Z,0.12
2023-01-26T13:58:12.813Z,0.17
2023-01-26T14:00:41.019Z,0.17
2023-01-26T14:03:21.280Z,0.19
2023-01-26T14:05:53.778Z,0.37
2023-01-26T14:08:23.113Z,0.43
2023-01-26T14:10:52.047Z,0.46
2023-01-26T14:13:22.800Z,0.51
2023-01-26T14:15:57.350Z,0.51
2023-01-26T14:18:26.285Z,0.43
2023-01-26T14:21:00.801Z,0.40
2023-01-26T14:23:30.031Z,0.38
2023-01-26T14:25:59.459Z,0.23
2023-01-26T14:28:31.188Z,0.15
2023-01-26T14:31:02.443Z,0.15
2023-01-26T14:33:30.784Z,0.25
2023-01-26T14:36:02.092Z,0.11
2023-01-26T14:38:32.948Z,0.14
2023-01-26T14:41:01.913Z,0.01
2023-01-26T14:43:29.991Z,0.09
2023-01-26T14:46:00.384Z,0.11
2023-01-26T14:48:32.640Z,0.16
2023-01-26T14:51:04.868Z,0.17
2023-01-26T14:53:33.073Z,0.10
2023-01-26T14:56:01.279Z,0.22
2023-01-26T14:58:30.962Z,0.18
2023-01-26T15:01:00.012Z,0.19
2023-01-26T15:03:29.811Z,0.23
2023-01-26T15:06:06.690Z,0.23
2023-01-26T15:08:36.277Z,0.25
2023-01-26T15:11:22.621Z,0.29
2023-01-26T15:13:53.466Z,0.26
2023-01-26T15:16:22.877Z,0.32
2023-01-26T15:18:59.120Z,0.24
2023-01-26T15:21:33.655Z,0.26
2023-01-26T15:24:01.825Z,0.22
2023-01-26T15:26:30.791Z,0.25
2023-01-26T15:28:59.965Z,0.21
2023-01-26T15:31:31.220Z,0.19
2023-01-26T15:34:01.767Z,0.17
2023-01-26T15:36:36.037Z,0.19
2023-01-26T15:39:10.850Z,0.18
2023-01-26T15:41:39.024Z,0.25
2023-01-26T15:44:10.660Z,0.23
2023-01-26T15:46:38.903Z,0.29
2023-01-26T15:49:06.995Z,0.24
2023-01-26T15:51:38.109Z,0.14
2023-01-26T15:54:06.585Z,0.31
2023-01-26T15:56:34.742Z,0.28
2023-01-26T15:59:02.894Z,0.26
2023-01-26T16:01:31.006Z,0.30
2023-01-26T16:03:59.201Z,0.28
2023-01-26T16:06:28.270Z,0.28
2023-01-26T16:08:58.391Z,0.28
2023-01-26T16:11:28.853Z,0.27
2023-01-26T16:14:03.335Z,0.27
2023-01-26T16:16:33.163Z,0.29
2023-01-26T16:19:02.016Z,0.30
2023-01-26T16:21:32.937Z,0.30
2023-01-26T16:24:02.960Z,0.32
2023-01-26T16:26:31.617Z,0.25
2023-01-26T16:29:00.361Z,0.32
2023-01-26T16:31:29.927Z,0.19
2023-01-26T16:33:58.359Z,0.27
2023-01-26T16:36:26.577Z,0.31
2023-01-26T16:38:54.716Z,0.31
2023-01-26T16:41:25.921Z,0.36
2023-01-26T16:43:54.767Z,0.30
2023-01-26T16:46:23.186Z,0.47
2023-01-26T16:48:51.317Z,0.49
2023-01-26T16:51:21.057Z,0.49
2023-01-26T16:53:50.278Z,0.45
2023-01-26T16:56:19.256Z,0.42
2023-01-26T16:58:48.959Z,0.38
2023-01-26T17:01:18.658Z,0.36
2023-01-26T17:03:47.916Z,0.27
2023-01-26T17:06:16.994Z,0.26
2023-01-26T17:08:45.540Z,0.29
2023-01-26T17:11:17.751Z,0.58
2023-01-26T17:13:46.521Z,0.54
2023-01-26T17:16:16.743Z,0.47
2023-01-26T17:18:46.018Z,0.35
2023-01-26T17:21:14.632Z,0.24
2023-01-26T17:23:44.402Z,0.13
2023-01-26T17:26:13.183Z,0.11
2023-01-26T17:28:41.332Z,0.09
2023-01-26T17:31:10.769Z,0.18
2023-01-26T17:33:40.223Z,0.21
2023-01-26T17:36:09.641Z,0.31
2023-01-26T17:38:38.202Z,0.37
2023-01-26T17:41:06.703Z,0.41
2023-01-26T17:43:35.509Z,0.36
2023-01-26T17:46:04.723Z,0.45
2023-01-26T17:48:33.065Z,0.50
2023-01-26T17:51:05.255Z,0.44
2023-01-26T17:53:33.507Z,0.43
2023-01-26T17:56:01.899Z,0.50
2023-01-26T17:58:30.810Z,0.49
2023-01-26T18:00:59.047Z,0.53
2023-01-26T18:03:27.337Z,0.55
2023-01-26T18:05:55.930Z,0.62
2023-01-26T18:08:25.815Z,0.69
2023-01-26T18:10:57.990Z,0.68
2023-01-26T18:13:26.204Z,0.73
2023-01-26T18:15:54.869Z,0.74
2023-01-26T18:18:23.130Z,0.82
2023-01-26T18:20:51.649Z,0.84
2023-01-26T18:23:20.224Z,0.85
2023-01-26T18:25:52.313Z,0.75
2023-01-26T18:28:20.633Z,0.80
2023-01-26T18:30:48.846Z,0.78
2023-01-26T18:33:16.962Z,0.80
2023-01-26T18:35:45.109Z,0.75
2023-01-26T18:38:13.253Z,0.70
2023-01-26T18:40:41.431Z,0.57
2023-01-26T18:43:11.237Z,0.50
2023-01-26T18:45:41.335Z,0.63
2023-01-26T18:48:12.217Z,0.69
2023-01-26T18:50:40.996Z,0.64
2023-01-26T18:53:09.116Z,0.61
2023-01-26T18:55:37.995Z,0.64
2023-01-26T18:58:06.313Z,0.65
2023-01-26T19:00:36.443Z,0.70
2023-01-26T19:03:04.868Z,0.72
2023-01-26T19:05:33.036Z,0.73
2023-01-26T19:08:09.873Z,0.70
2023-01-26T19:10:38.852Z,0.68
2023-01-26T19:13:07.461Z,0.66
2023-01-26T19:15:37.313Z,0.67
2023-01-26T19:18:05.466Z,0.70
2023-01-26T19:20:33.621Z,0.82
2023-01-26T19:23:03.725Z,0.87
2023-01-26T19:25:32.265Z,0.92
2023-01-26T19:28:00.447Z,0.89
2023-01-26T19:30:28.545Z,0.86
2023-01-26T19:33:16.422Z,0.83
2023-01-26T19:35:44.611Z,0.87
2023-01-26T19:38:12.754Z,0.88
2023-01-26T19:40:40.990Z,0.94
2023-01-26T19:43:09.458Z,0.98
2023-01-26T19:45:37.587Z,1.01
2023-01-26T19:48:07.620Z,1.02
2023-01-26T19:50:35.828Z,1.03
2023-01-26T19:53:04.593Z,1.04
2023-01-26T19:55:34.693Z,1.02
2023-01-26T19:58:03.245Z,1.09
2023-01-26T20:00:31.475Z,1.10
2023-01-26T20:02:59.497Z,1.09
2023-01-26T20:05:29.031Z,1.09
2023-01-26T20:07:57.229Z,1.02
2023-01-26T20:10:25.307Z,1.02
2023-01-26T20:12:57.205Z,1.02
2023-01-26T20:15:25.687Z,1.05
2023-01-26T20:17:53.927Z,1.11
2023-01-26T20:20:22.029Z,1.16
2023-01-26T20:22:51.548Z,1.16
2023-01-26T20:25:19.676Z,1.13
2023-01-26T20:27:47.760Z,1.15
2023-01-26T20:30:16.676Z,1.16
2023-01-26T20:32:44.790Z,1.27
2023-01-26T20:35:14.463Z,1.24
2023-01-26T20:37:42.950Z,1.25
2023-01-26T20:40:13.721Z,1.28
2023-01-26T20:42:42.095Z,1.26
2023-01-26T20:45:10.758Z,1.28
2023-01-26T20:47:40.337Z,1.31
2023-01-26T20:50:08.971Z,1.27
2023-01-26T20:52:37.062Z,1.28
2023-01-26T20:55:06.787Z,1.31
2023-01-26T20:57:36.233Z,1.35
2023-01-26T21:00:04.540Z,1.32
2023-01-26T21:02:33.103Z,1.35
2023-01-26T21:05:01.269Z,1.36
2023-01-26T21:07:29.367Z,1.33
2023-01-26T21:09:57.470Z,1.30
2023-01-26T21:12:25.635Z,1.27
2023-01-26T21:14:55.192Z,1.28
2023-01-26T21:17:24.349Z,1.28
2023-01-26T21:19:52.493Z,1.27
2023-01-26T21:22:20.862Z,1.28
2023-01-26T21:24:48.937Z,1.31
2023-01-26T21:27:18.444Z,1.35
2023-01-26T21:29:46.529Z,1.39
2023-01-26T21:32:15.934Z,1.36
2023-01-26T21:34:44.093Z,1.37
2023-01-26T21:37:12.169Z,1.38
2023-01-26T21:39:40.287Z,1.32
2023-01-26T21:42:08.390Z,1.36
2023-01-26T21:44:56.650Z,1.38
2023-01-26T21:47:26.108Z,1.40
2023-01-26T21:49:56.083Z,1.43
2023-01-26T21:52:41.548Z,1.41
2023-01-26T21:55:09.942Z,1.45
2023-01-26T21:57:55.441Z,1.55
2023-01-26T22:00:23.670Z,1.60
2023-01-26T22:02:54.396Z,1.62
2023-01-26T22:05:22.537Z,1.63
2023-01-26T22:07:50.631Z,1.69
2023-01-26T22:10:18.777Z,1.69
2023-01-26T22:12:46.950Z,1.61
2023-01-26T22:15:15.343Z,1.61
2023-01-26T22:17:43.395Z,1.57
2023-01-26T22:20:14.084Z,1.54
2023-01-26T22:22:42.441Z,1.56
2023-01-26T22:25:10.770Z,1.61
2023-01-26T22:27:40.341Z,1.60
2023-01-26T22:30:09.196Z,1.62
2023-01-26T22:32:37.277Z,1.64
2023-01-26T22:35:06.387Z,1.62
2023-01-26T22:37:35.919Z,1.68
2023-01-26T22:40:04.553Z,1.60
2023-01-26T22:42:32.922Z,1.58
2023-01-26T22:45:01.012Z,1.58
2023-01-26T22:47:29.281Z,1.65
2023-01-26T22:49:57.458Z,1.61
2023-01-26T22:52:25.587Z,1.69
2023-01-26T22:54:55.034Z,1.62
2023-01-26T22:57:23.225Z,1.60
2023-01-26T22:59:51.283Z,1.56
2023-01-26T23:02:19.379Z,1.63
2023-01-26T23:04:50.224Z,1.68
2023-01-26T23:07:18.471Z,1.68
2023-01-26T23:09:46.545Z,1.62
2023-01-26T23:12:16.054Z,1.60
2023-01-26T23:14:44.143Z,1.59
2023-01-26T23:17:12.225Z,1.52
2023-01-26T23:19:40.291Z,1.47
2023-01-26T23:22:08.378Z,1.49
2023-01-26T23:24:36.499Z,1.51
2023-01-26T23:27:04.642Z,1.49
2023-01-26T23:29:34.057Z,1.46
2023-01-26T23:32:02.953Z,1.46
2023-01-26T23:34:32.855Z,1.49
2023-01-26T23:37:03.472Z,1.48
2023-01-26T23:39:31.667Z,1.44
2023-01-26T23:41:59.787Z,1.51
2023-01-26T23:44:27.859Z,1.49
2023-01-26T23:46:58.748Z,1.54
2023-01-26T23:49:26.988Z,1.47
2023-01-26T23:51:55.021Z,1.45
2023-01-26T23:54:23.235Z,1.50
2023-01-26T23:56:53.663Z,1.48
2023-01-26T23:59:24.007Z,1.46
